Airport View

Enter AWOS ICAO identifier for current METAR.

ex. KFNL

KFFA 192355Z AUTO 04003KT 7SM OVC007 18/18 A3021 RMK AO2 60001 T01770177 10355 21013

19 Oct 2020 23:59

Frequency: 118.075

Phone: 252-449-0698

Other Area AWOS: KMQI - K2DP - KECG - KONX

TAF KECG 192128Z 1921/2018 06011KT P6SM VCSH BKN009 OVC045 FM200200 08003KT P6SM OVC015 FM200500 VRB03KT 4SM BR OVC007 FM200800 00000KT 2SM BR OVC004 FM201400 10005KT P6SM BKN015